sensor_id;sensor_type;location;lat;lon;timestamp;P1;durP1;ratioP1;P2;durP2;ratioP2
48667;SDS011;34453;52.198;5.004;2022-08-27T00:01:07;1.92;;;1.23;;
48667;SDS011;34453;52.198;5.004;2022-08-27T00:03:33;2.47;;;1.10;;
48667;SDS011;34453;52.198;5.004;2022-08-27T00:05:59;2.60;;;1.58;;
48667;SDS011;34453;52.198;5.004;2022-08-27T00:08:25;6.55;;;2.28;;
48667;SDS011;34453;52.198;5.004;2022-08-27T00:10:50;2.83;;;1.60;;
48667;SDS011;34453;52.198;5.004;2022-08-27T00:13:16;6.45;;;1.40;;
48667;SDS011;34453;52.198;5.004;2022-08-27T00:15:42;1.95;;;1.30;;
48667;SDS011;34453;52.198;5.004;2022-08-27T00:18:07;3.20;;;1.30;;
48667;SDS011;34453;52.198;5.004;2022-08-27T00:20:33;2.80;;;1.33;;
48667;SDS011;34453;52.198;5.004;2022-08-27T00:22:58;3.58;;;1.42;;
48667;SDS011;34453;52.198;5.004;2022-08-27T00:25:24;5.93;;;1.55;;
48667;SDS011;34453;52.198;5.004;2022-08-27T00:27:50;5.00;;;1.90;;
48667;SDS011;34453;52.198;5.004;2022-08-27T00:30:16;4.78;;;2.28;;
48667;SDS011;34453;52.198;5.004;2022-08-27T00:32:44;2.45;;;1.70;;
48667;SDS011;34453;52.198;5.004;2022-08-27T00:35:09;4.45;;;1.40;;
48667;SDS011;34453;52.198;5.004;2022-08-27T00:37:36;2.97;;;1.48;;
48667;SDS011;34453;52.198;5.004;2022-08-27T00:40:03;2.92;;;1.13;;
48667;SDS011;34453;52.198;5.004;2022-08-27T00:42:30;4.95;;;1.83;;
48667;SDS011;34453;52.198;5.004;2022-08-27T00:44:56;6.00;;;1.73;;
48667;SDS011;34453;52.198;5.004;2022-08-27T00:47:23;3.58;;;1.33;;
48667;SDS011;34453;52.198;5.004;2022-08-27T00:49:53;1.65;;;1.55;;
48667;SDS011;34453;52.198;5.004;2022-08-27T00:52:45;2.15;;;1.50;;
48667;SDS011;34453;52.198;5.004;2022-08-27T00:55:20;2.40;;;2.15;;
48667;SDS011;34453;52.198;5.004;2022-08-27T01:00:18;5.28;;;2.30;;
48667;SDS011;34453;52.198;5.004;2022-08-27T01:02:43;3.22;;;1.77;;
48667;SDS011;34453;52.198;5.004;2022-08-27T01:05:12;3.38;;;1.08;;
48667;SDS011;34453;52.198;5.004;2022-08-27T01:07:42;3.22;;;1.35;;
48667;SDS011;34453;52.198;5.004;2022-08-27T01:10:13;4.47;;;2.00;;
48667;SDS011;34453;52.198;5.004;2022-08-27T01:12:42;8.48;;;1.52;;
48667;SDS011;34453;52.198;5.004;2022-08-27T01:15:09;4.72;;;1.38;;
48667;SDS011;34453;52.198;5.004;2022-08-27T01:17:38;2.47;;;1.60;;
48667;SDS011;34453;52.198;5.004;2022-08-27T01:20:06;4.25;;;1.80;;
48667;SDS011;34453;52.198;5.004;2022-08-27T01:25:49;2.15;;;1.15;;
48667;SDS011;34453;52.198;5.004;2022-08-27T01:28:15;2.72;;;1.42;;
48667;SDS011;34453;52.198;5.004;2022-08-27T01:30:41;6.05;;;2.00;;
48667;SDS011;34453;52.198;5.004;2022-08-27T01:33:08;5.05;;;1.92;;
48667;SDS011;34453;52.198;5.004;2022-08-27T01:35:36;4.85;;;1.70;;
48667;SDS011;34453;52.198;5.004;2022-08-27T01:38:01;5.60;;;1.98;;
48667;SDS011;34453;52.198;5.004;2022-08-27T01:40:27;3.90;;;1.85;;
48667;SDS011;34453;52.198;5.004;2022-08-27T01:42:52;3.83;;;1.52;;
48667;SDS011;34453;52.198;5.004;2022-08-27T01:45:26;3.90;;;1.42;;
48667;SDS011;34453;52.198;5.004;2022-08-27T01:47:54;3.63;;;2.00;;
48667;SDS011;34453;52.198;5.004;2022-08-27T01:50:22;2.17;;;1.30;;
48667;SDS011;34453;52.198;5.004;2022-08-27T01:52:53;4.60;;;1.70;;
48667;SDS011;34453;52.198;5.004;2022-08-27T01:55:21;2.83;;;2.03;;
48667;SDS011;34453;52.198;5.004;2022-08-27T01:57:49;2.55;;;1.35;;
48667;SDS011;34453;52.198;5.004;2022-08-27T02:00:17;3.63;;;1.60;;
48667;SDS011;34453;52.198;5.004;2022-08-27T02:02:45;4.50;;;2.05;;
48667;SDS011;34453;52.198;5.004;2022-08-27T02:05:11;2.63;;;1.42;;
48667;SDS011;34453;52.198;5.004;2022-08-27T02:07:37;1.80;;;1.40;;
48667;SDS011;34453;52.198;5.004;2022-08-27T02:10:04;3.42;;;1.67;;
48667;SDS011;34453;52.198;5.004;2022-08-27T02:12:32;3.50;;;2.15;;
48667;SDS011;34453;52.198;5.004;2022-08-27T02:14:57;3.00;;;1.80;;
48667;SDS011;34453;52.198;5.004;2022-08-27T02:17:23;5.07;;;1.80;;
48667;SDS011;34453;52.198;5.004;2022-08-27T02:19:48;3.95;;;2.50;;
48667;SDS011;34453;52.198;5.004;2022-08-27T02:22:14;6.50;;;2.00;;
48667;SDS011;34453;52.198;5.004;2022-08-27T02:24:39;5.38;;;2.15;;
48667;SDS011;34453;52.198;5.004;2022-08-27T02:27:06;6.00;;;2.60;;
48667;SDS011;34453;52.198;5.004;2022-08-27T02:29:32;2.10;;;1.90;;
48667;SDS011;34453;52.198;5.004;2022-08-27T02:31:58;6.13;;;2.22;;
48667;SDS011;34453;52.198;5.004;2022-08-27T02:34:25;4.75;;;2.00;;
48667;SDS011;34453;52.198;5.004;2022-08-27T02:36:51;4.10;;;2.10;;
48667;SDS011;34453;52.198;5.004;2022-08-27T02:39:17;3.92;;;2.72;;
48667;SDS011;34453;52.198;5.004;2022-08-27T02:41:43;2.55;;;2.08;;
48667;SDS011;34453;52.198;5.004;2022-08-27T02:44:09;4.80;;;2.90;;
48667;SDS011;34453;52.198;5.004;2022-08-27T02:46:35;3.53;;;2.10;;
48667;SDS011;34453;52.198;5.004;2022-08-27T02:49:02;3.67;;;1.77;;
48667;SDS011;34453;52.198;5.004;2022-08-27T02:51:28;4.70;;;1.83;;
48667;SDS011;34453;52.198;5.004;2022-08-27T02:53:53;3.08;;;2.22;;
48667;SDS011;34453;52.198;5.004;2022-08-27T02:56:19;4.60;;;2.35;;
48667;SDS011;34453;52.198;5.004;2022-08-27T02:58:44;2.92;;;1.98;;
48667;SDS011;34453;52.198;5.004;2022-08-27T03:01:10;4.63;;;2.88;;
48667;SDS011;34453;52.198;5.004;2022-08-27T03:03:35;2.50;;;2.30;;
48667;SDS011;34453;52.198;5.004;2022-08-27T03:06:01;6.05;;;2.25;;
48667;SDS011;34453;52.198;5.004;2022-08-27T03:08:26;5.95;;;2.97;;
48667;SDS011;34453;52.198;5.004;2022-08-27T03:10:52;4.25;;;2.30;;
48667;SDS011;34453;52.198;5.004;2022-08-27T03:13:19;4.53;;;2.38;;
48667;SDS011;34453;52.198;5.004;2022-08-27T03:15:44;3.03;;;2.78;;
48667;SDS011;34453;52.198;5.004;2022-08-27T03:18:10;4.88;;;2.83;;
48667;SDS011;34453;52.198;5.004;2022-08-27T03:20:42;2.95;;;2.20;;
48667;SDS011;34453;52.198;5.004;2022-08-27T03:23:09;3.72;;;2.80;;
48667;SDS011;34453;52.198;5.004;2022-08-27T03:25:36;4.88;;;2.00;;
48667;SDS011;34453;52.198;5.004;2022-08-27T03:28:02;7.07;;;4.38;;
48667;SDS011;34453;52.198;5.004;2022-08-27T03:30:28;6.35;;;2.65;;
48667;SDS011;34453;52.198;5.004;2022-08-27T03:32:54;3.42;;;2.42;;
48667;SDS011;34453;52.198;5.004;2022-08-27T03:35:20;4.63;;;2.80;;
48667;SDS011;34453;52.198;5.004;2022-08-27T03:37:46;3.53;;;2.72;;
48667;SDS011;34453;52.198;5.004;2022-08-27T03:40:13;7.20;;;3.30;;
48667;SDS011;34453;52.198;5.004;2022-08-27T03:42:39;3.85;;;3.03;;
48667;SDS011;34453;52.198;5.004;2022-08-27T03:45:06;3.08;;;2.35;;
48667;SDS011;34453;52.198;5.004;2022-08-27T03:47:32;3.65;;;2.58;;
48667;SDS011;34453;52.198;5.004;2022-08-27T03:49:58;3.25;;;2.97;;
48667;SDS011;34453;52.198;5.004;2022-08-27T03:52:25;8.40;;;3.15;;
48667;SDS011;34453;52.198;5.004;2022-08-27T03:54:51;3.53;;;2.45;;
48667;SDS011;34453;52.198;5.004;2022-08-27T03:57:16;6.80;;;3.15;;
48667;SDS011;34453;52.198;5.004;2022-08-27T03:59:42;4.90;;;2.78;;
48667;SDS011;34453;52.198;5.004;2022-08-27T04:02:07;7.63;;;3.38;;
48667;SDS011;34453;52.198;5.004;2022-08-27T04:04:32;3.38;;;2.53;;
48667;SDS011;34453;52.198;5.004;2022-08-27T04:06:58;4.68;;;2.63;;
48667;SDS011;34453;52.198;5.004;2022-08-27T04:09:24;4.68;;;2.95;;
48667;SDS011;34453;52.198;5.004;2022-08-27T04:11:49;5.55;;;2.58;;
48667;SDS011;34453;52.198;5.004;2022-08-27T04:14:15;8.50;;;2.65;;
48667;SDS011;34453;52.198;5.004;2022-08-27T04:16:41;3.50;;;3.20;;
48667;SDS011;34453;52.198;5.004;2022-08-27T04:19:07;7.25;;;3.20;;
48667;SDS011;34453;52.198;5.004;2022-08-27T04:21:33;6.55;;;3.17;;
48667;SDS011;34453;52.198;5.004;2022-08-27T04:23:59;4.80;;;2.65;;
48667;SDS011;34453;52.198;5.004;2022-08-27T04:26:25;6.45;;;3.08;;
48667;SDS011;34453;52.198;5.004;2022-08-27T04:28:51;8.27;;;3.20;;
48667;SDS011;34453;52.198;5.004;2022-08-27T04:31:16;5.78;;;4.38;;
48667;SDS011;34453;52.198;5.004;2022-08-27T04:33:43;8.32;;;3.22;;
48667;SDS011;34453;52.198;5.004;2022-08-27T04:36:09;3.10;;;2.85;;
48667;SDS011;34453;52.198;5.004;2022-08-27T04:38:35;3.75;;;2.58;;
48667;SDS011;34453;52.198;5.004;2022-08-27T04:41:02;3.65;;;2.60;;
48667;SDS011;34453;52.198;5.004;2022-08-27T04:43:48;4.80;;;3.20;;
48667;SDS011;34453;52.198;5.004;2022-08-27T04:46:19;3.60;;;2.60;;
48667;SDS011;34453;52.198;5.004;2022-08-27T04:48:45;2.53;;;2.33;;
48667;SDS011;34453;52.198;5.004;2022-08-27T04:51:11;4.30;;;2.60;;
48667;SDS011;34453;52.198;5.004;2022-08-27T04:53:36;2.67;;;2.15;;
48667;SDS011;34453;52.198;5.004;2022-08-27T04:56:02;8.50;;;3.05;;
48667;SDS011;34453;52.198;5.004;2022-08-27T04:58:29;6.07;;;2.80;;
48667;SDS011;34453;52.198;5.004;2022-08-27T05:00:55;3.28;;;2.13;;
48667;SDS011;34453;52.198;5.004;2022-08-27T05:03:25;6.13;;;3.60;;
48667;SDS011;34453;52.198;5.004;2022-08-27T05:05:51;2.63;;;2.28;;
48667;SDS011;34453;52.198;5.004;2022-08-27T05:08:18;7.10;;;2.20;;
48667;SDS011;34453;52.198;5.004;2022-08-27T05:10:48;3.08;;;2.65;;
48667;SDS011;34453;52.198;5.004;2022-08-27T05:13:15;3.05;;;2.45;;
48667;SDS011;34453;52.198;5.004;2022-08-27T05:15:45;3.65;;;2.10;;
48667;SDS011;34453;52.198;5.004;2022-08-27T05:18:11;5.55;;;2.17;;
48667;SDS011;34453;52.198;5.004;2022-08-27T05:20:47;2.28;;;2.05;;
48667;SDS011;34453;52.198;5.004;2022-08-27T05:23:14;6.88;;;2.42;;
48667;SDS011;34453;52.198;5.004;2022-08-27T05:25:42;3.55;;;2.67;;
48667;SDS011;34453;52.198;5.004;2022-08-27T05:28:11;3.15;;;2.28;;
48667;SDS011;34453;52.198;5.004;2022-08-27T05:30:37;4.43;;;2.20;;
48667;SDS011;34453;52.198;5.004;2022-08-27T05:33:05;2.85;;;2.10;;
48667;SDS011;34453;52.198;5.004;2022-08-27T05:35:31;4.57;;;2.22;;
48667;SDS011;34453;52.198;5.004;2022-08-27T05:37:57;4.32;;;2.40;;
48667;SDS011;34453;52.198;5.004;2022-08-27T05:40:24;3.15;;;2.67;;
48667;SDS011;34453;52.198;5.004;2022-08-27T05:42:50;9.85;;;2.92;;
48667;SDS011;34453;52.198;5.004;2022-08-27T05:45:15;3.70;;;2.20;;
48667;SDS011;34453;52.198;5.004;2022-08-27T05:47:41;2.67;;;2.47;;
48667;SDS011;34453;52.198;5.004;2022-08-27T05:50:06;4.78;;;2.45;;
48667;SDS011;34453;52.198;5.004;2022-08-27T05:52:32;5.65;;;2.78;;
48667;SDS011;34453;52.198;5.004;2022-08-27T05:54:59;5.15;;;2.45;;
48667;SDS011;34453;52.198;5.004;2022-08-27T05:57:24;4.40;;;2.75;;
48667;SDS011;34453;52.198;5.004;2022-08-27T05:59:50;5.65;;;2.97;;
48667;SDS011;34453;52.198;5.004;2022-08-27T06:02:34;4.40;;;3.17;;
48667;SDS011;34453;52.198;5.004;2022-08-27T06:05:01;10.18;;;3.65;;
48667;SDS011;34453;52.198;5.004;2022-08-27T06:07:28;6.35;;;2.92;;
48667;SDS011;34453;52.198;5.004;2022-08-27T06:09:54;6.03;;;2.72;;
48667;SDS011;34453;52.198;5.004;2022-08-27T06:12:19;6.45;;;3.50;;
48667;SDS011;34453;52.198;5.004;2022-08-27T06:14:45;6.63;;;3.75;;
48667;SDS011;34453;52.198;5.004;2022-08-27T06:17:11;10.40;;;3.10;;
48667;SDS011;34453;52.198;5.004;2022-08-27T06:19:36;5.97;;;3.45;;
48667;SDS011;34453;52.198;5.004;2022-08-27T06:22:02;2.50;;;2.30;;
48667;SDS011;34453;52.198;5.004;2022-08-27T06:24:28;3.10;;;2.80;;
48667;SDS011;34453;52.198;5.004;2022-08-27T06:26:54;4.05;;;2.65;;
48667;SDS011;34453;52.198;5.004;2022-08-27T06:29:20;6.85;;;2.67;;
48667;SDS011;34453;52.198;5.004;2022-08-27T06:31:47;8.20;;;2.72;;
48667;SDS011;34453;52.198;5.004;2022-08-27T06:34:14;2.53;;;1.95;;
48667;SDS011;34453;52.198;5.004;2022-08-27T06:36:40;6.30;;;2.83;;
48667;SDS011;34453;52.198;5.004;2022-08-27T06:39:06;2.45;;;2.08;;
48667;SDS011;34453;52.198;5.004;2022-08-27T06:41:33;2.30;;;2.10;;
48667;SDS011;34453;52.198;5.004;2022-08-27T06:43:58;2.72;;;2.40;;
48667;SDS011;34453;52.198;5.004;2022-08-27T06:46:25;2.58;;;2.38;;
48667;SDS011;34453;52.198;5.004;2022-08-27T06:48:53;3.75;;;3.00;;
48667;SDS011;34453;52.198;5.004;2022-08-27T06:51:22;4.38;;;2.40;;
48667;SDS011;34453;52.198;5.004;2022-08-27T06:53:50;7.47;;;2.60;;
48667;SDS011;34453;52.198;5.004;2022-08-27T06:56:17;6.05;;;2.20;;
48667;SDS011;34453;52.198;5.004;2022-08-27T06:58:43;5.78;;;2.03;;
48667;SDS011;34453;52.198;5.004;2022-08-27T07:01:13;7.35;;;2.13;;
48667;SDS011;34453;52.198;5.004;2022-08-27T07:03:40;2.67;;;2.00;;
48667;SDS011;34453;52.198;5.004;2022-08-27T07:06:07;5.93;;;2.33;;
48667;SDS011;34453;52.198;5.004;2022-08-27T07:08:34;3.58;;;1.52;;
48667;SDS011;34453;52.198;5.004;2022-08-27T07:10:59;2.97;;;1.77;;
48667;SDS011;34453;52.198;5.004;2022-08-27T07:13:25;6.82;;;1.77;;
48667;SDS011;34453;52.198;5.004;2022-08-27T07:15:51;2.38;;;1.33;;
48667;SDS011;34453;52.198;5.004;2022-08-27T07:18:17;5.40;;;1.73;;
48667;SDS011;34453;52.198;5.004;2022-08-27T07:20:42;3.63;;;1.67;;
48667;SDS011;34453;52.198;5.004;2022-08-27T07:23:08;3.40;;;2.28;;
48667;SDS011;34453;52.198;5.004;2022-08-27T07:25:33;5.03;;;1.95;;
48667;SDS011;34453;52.198;5.004;2022-08-27T07:27:59;4.45;;;1.80;;
48667;SDS011;34453;52.198;5.004;2022-08-27T07:30:25;2.50;;;1.17;;
48667;SDS011;34453;52.198;5.004;2022-08-27T07:32:51;5.43;;;1.30;;
48667;SDS011;34453;52.198;5.004;2022-08-27T07:35:17;4.15;;;1.20;;
48667;SDS011;34453;52.198;5.004;2022-08-27T07:37:43;3.15;;;1.40;;
48667;SDS011;34453;52.198;5.004;2022-08-27T07:40:10;3.35;;;1.27;;
48667;SDS011;34453;52.198;5.004;2022-08-27T07:42:38;3.50;;;1.10;;
48667;SDS011;34453;52.198;5.004;2022-08-27T07:45:23;5.32;;;1.80;;
48667;SDS011;34453;52.198;5.004;2022-08-27T07:47:50;6.25;;;2.08;;
48667;SDS011;34453;52.198;5.004;2022-08-27T07:50:16;1.75;;;1.25;;
48667;SDS011;34453;52.198;5.004;2022-08-27T07:52:42;4.18;;;1.23;;
48667;SDS011;34453;52.198;5.004;2022-08-27T07:55:08;2.65;;;1.05;;
48667;SDS011;34453;52.198;5.004;2022-08-27T07:57:35;1.23;;;0.93;;
48667;SDS011;34453;52.198;5.004;2022-08-27T08:00:04;2.20;;;1.38;;
48667;SDS011;34453;52.198;5.004;2022-08-27T08:02:33;2.45;;;1.15;;
48667;SDS011;34453;52.198;5.004;2022-08-27T08:04:59;8.10;;;1.17;;
48667;SDS011;34453;52.198;5.004;2022-08-27T08:07:25;3.58;;;1.73;;
48667;SDS011;34453;52.198;5.004;2022-08-27T08:09:50;3.78;;;1.50;;
48667;SDS011;34453;52.198;5.004;2022-08-27T08:12:16;1.80;;;1.20;;
48667;SDS011;34453;52.198;5.004;2022-08-27T08:14:41;2.22;;;1.23;;
48667;SDS011;34453;52.198;5.004;2022-08-27T08:17:07;6.50;;;1.50;;
48667;SDS011;34453;52.198;5.004;2022-08-27T08:19:33;2.00;;;1.38;;
48667;SDS011;34453;52.198;5.004;2022-08-27T08:21:59;2.28;;;1.25;;
48667;SDS011;34453;52.198;5.004;2022-08-27T08:24:25;3.50;;;1.20;;
48667;SDS011;34453;52.198;5.004;2022-08-27T08:26:50;1.60;;;1.38;;
48667;SDS011;34453;52.198;5.004;2022-08-27T08:29:16;5.22;;;1.63;;
48667;SDS011;34453;52.198;5.004;2022-08-27T08:31:41;3.75;;;1.50;;
48667;SDS011;34453;52.198;5.004;2022-08-27T08:34:08;6.93;;;1.73;;
48667;SDS011;34453;52.198;5.004;2022-08-27T08:36:34;5.30;;;1.15;;
48667;SDS011;34453;52.198;5.004;2022-08-27T08:38:59;2.30;;;1.30;;
48667;SDS011;34453;52.198;5.004;2022-08-27T08:41:39;4.30;;;1.42;;
48667;SDS011;34453;52.198;5.004;2022-08-27T08:44:13;3.95;;;0.95;;
48667;SDS011;34453;52.198;5.004;2022-08-27T08:51:42;4.90;;;1.42;;
48667;SDS011;34453;52.198;5.004;2022-08-27T08:54:18;5.93;;;1.48;;
48667;SDS011;34453;52.198;5.004;2022-08-27T08:57:00;1.73;;;1.45;;
48667;SDS011;34453;52.198;5.004;2022-08-27T08:59:36;4.05;;;1.35;;
48667;SDS011;34453;52.198;5.004;2022-08-27T09:02:05;2.72;;;1.00;;
48667;SDS011;34453;52.198;5.004;2022-08-27T09:04:33;8.73;;;1.90;;
48667;SDS011;34453;52.198;5.004;2022-08-27T09:07:01;10.45;;;1.55;;
48667;SDS011;34453;52.198;5.004;2022-08-27T09:12:26;5.07;;;1.70;;
48667;SDS011;34453;52.198;5.004;2022-08-27T09:18:04;5.05;;;1.45;;
48667;SDS011;34453;52.198;5.004;2022-08-27T09:20:34;6.80;;;2.13;;
48667;SDS011;34453;52.198;5.004;2022-08-27T09:25:50;5.07;;;1.40;;
48667;SDS011;34453;52.198;5.004;2022-08-27T09:28:25;7.53;;;1.63;;
48667;SDS011;34453;52.198;5.004;2022-08-27T09:31:12;4.78;;;1.48;;
48667;SDS011;34453;52.198;5.004;2022-08-27T09:33:43;2.60;;;1.40;;
48667;SDS011;34453;52.198;5.004;2022-08-27T09:36:10;3.78;;;1.17;;
48667;SDS011;34453;52.198;5.004;2022-08-27T09:38:39;4.05;;;1.73;;
48667;SDS011;34453;52.198;5.004;2022-08-27T09:41:16;2.65;;;1.00;;
48667;SDS011;34453;52.198;5.004;2022-08-27T09:43:54;2.65;;;1.40;;
48667;SDS011;34453;52.198;5.004;2022-08-27T09:46:22;5.68;;;1.50;;
48667;SDS011;34453;52.198;5.004;2022-08-27T09:48:49;5.40;;;1.45;;
48667;SDS011;34453;52.198;5.004;2022-08-27T09:51:19;7.82;;;1.40;;
48667;SDS011;34453;52.198;5.004;2022-08-27T09:53:58;5.30;;;1.30;;
48667;SDS011;34453;52.198;5.004;2022-08-27T09:59:08;2.83;;;1.20;;
48667;SDS011;34453;52.198;5.004;2022-08-27T10:04:26;4.32;;;1.42;;
48667;SDS011;34453;52.198;5.004;2022-08-27T10:08:03;4.15;;;1.70;;
48667;SDS011;34453;52.198;5.004;2022-08-27T10:15:40;1.83;;;0.73;;
48667;SDS011;34453;52.198;5.004;2022-08-27T10:18:31;1.48;;;0.77;;
48667;SDS011;34453;52.198;5.004;2022-08-27T10:21:11;6.20;;;1.50;;
48667;SDS011;34453;52.198;5.004;2022-08-27T10:26:46;2.00;;;1.08;;
48667;SDS011;34453;52.198;5.004;2022-08-27T10:29:22;13.63;;;1.67;;
48667;SDS011;34453;52.198;5.004;2022-08-27T10:32:18;5.32;;;1.45;;
48667;SDS011;34453;52.198;5.004;2022-08-27T10:37:57;5.90;;;1.08;;
48667;SDS011;34453;52.198;5.004;2022-08-27T10:41:21;4.57;;;0.90;;
48667;SDS011;34453;52.198;5.004;2022-08-27T10:55:09;2.70;;;1.48;;
48667;SDS011;34453;52.198;5.004;2022-08-27T10:57:58;1.65;;;0.98;;
48667;SDS011;34453;52.198;5.004;2022-08-27T11:00:28;6.88;;;1.27;;
48667;SDS011;34453;52.198;5.004;2022-08-27T11:03:16;3.22;;;1.02;;
48667;SDS011;34453;52.198;5.004;2022-08-27T11:05:50;3.28;;;1.15;;
48667;SDS011;34453;52.198;5.004;2022-08-27T11:08:21;5.40;;;1.05;;
48667;SDS011;34453;52.198;5.004;2022-08-27T11:11:10;3.67;;;1.23;;
48667;SDS011;34453;52.198;5.004;2022-08-27T11:13:42;3.20;;;1.23;;
48667;SDS011;34453;52.198;5.004;2022-08-27T11:16:15;4.15;;;1.83;;
48667;SDS011;34453;52.198;5.004;2022-08-27T11:18:50;3.50;;;1.00;;
48667;SDS011;34453;52.198;5.004;2022-08-27T11:21:33;1.67;;;1.17;;
48667;SDS011;34453;52.198;5.004;2022-08-27T11:24:10;1.42;;;1.33;;
48667;SDS011;34453;52.198;5.004;2022-08-27T11:26:51;4.53;;;1.75;;
48667;SDS011;34453;52.198;5.004;2022-08-27T11:31:59;4.53;;;1.10;;
48667;SDS011;34453;52.198;5.004;2022-08-27T11:34:48;3.63;;;1.30;;
48667;SDS011;34453;52.198;5.004;2022-08-27T11:42:53;3.53;;;0.82;;
48667;SDS011;34453;52.198;5.004;2022-08-27T11:45:32;4.95;;;1.52;;
48667;SDS011;34453;52.198;5.004;2022-08-27T11:48:15;2.13;;;1.10;;
48667;SDS011;34453;52.198;5.004;2022-08-27T11:53:28;1.23;;;0.90;;
48667;SDS011;34453;52.198;5.004;2022-08-27T11:56:12;4.80;;;1.33;;
48667;SDS011;34453;52.198;5.004;2022-08-27T11:58:40;1.77;;;1.00;;
48667;SDS011;34453;52.198;5.004;2022-08-27T12:01:24;1.42;;;0.77;;
48667;SDS011;34453;52.198;5.004;2022-08-27T12:03:59;2.80;;;1.02;;
48667;SDS011;34453;52.198;5.004;2022-08-27T12:06:43;2.70;;;0.90;;
48667;SDS011;34453;52.198;5.004;2022-08-27T12:09:18;4.57;;;1.00;;
48667;SDS011;34453;52.198;5.004;2022-08-27T12:12:08;3.50;;;1.50;;
48667;SDS011;34453;52.198;5.004;2022-08-27T12:14:44;4.70;;;1.20;;
48667;SDS011;34453;52.198;5.004;2022-08-27T12:28:50;7.07;;;1.20;;
48667;SDS011;34453;52.198;5.004;2022-08-27T12:31:39;5.45;;;0.90;;
48667;SDS011;34453;52.198;5.004;2022-08-27T12:34:12;2.72;;;1.23;;
48667;SDS011;34453;52.198;5.004;2022-08-27T12:36:40;2.65;;;0.70;;
48667;SDS011;34453;52.198;5.004;2022-08-27T12:39:13;6.63;;;1.50;;
48667;SDS011;34453;52.198;5.004;2022-08-27T12:41:43;7.35;;;1.52;;
48667;SDS011;34453;52.198;5.004;2022-08-27T12:44:13;4.13;;;0.88;;
48667;SDS011;34453;52.198;5.004;2022-08-27T12:46:49;1.90;;;0.70;;
48667;SDS011;34453;52.198;5.004;2022-08-27T12:49:18;4.03;;;1.45;;
48667;SDS011;34453;52.198;5.004;2022-08-27T12:51:46;4.45;;;1.33;;
48667;SDS011;34453;52.198;5.004;2022-08-27T13:05:38;4.20;;;1.17;;
48667;SDS011;34453;52.198;5.004;2022-08-27T13:08:16;2.60;;;1.10;;
48667;SDS011;34453;52.198;5.004;2022-08-27T13:10:44;2.78;;;0.93;;
48667;SDS011;34453;52.198;5.004;2022-08-27T13:13:11;6.18;;;1.20;;
48667;SDS011;34453;52.198;5.004;2022-08-27T13:15:44;4.85;;;1.70;;
48667;SDS011;34453;52.198;5.004;2022-08-27T13:18:13;2.83;;;1.13;;
48667;SDS011;34453;52.198;5.004;2022-08-27T13:20:40;3.20;;;1.40;;
48667;SDS011;34453;52.198;5.004;2022-08-27T13:23:15;1.48;;;1.08;;
48667;SDS011;34453;52.198;5.004;2022-08-27T13:25:53;3.67;;;0.90;;
48667;SDS011;34453;52.198;5.004;2022-08-27T13:28:28;2.28;;;1.00;;
48667;SDS011;34453;52.198;5.004;2022-08-27T13:30:55;2.92;;;0.98;;
48667;SDS011;34453;52.198;5.004;2022-08-27T13:33:27;3.80;;;0.98;;
48667;SDS011;34453;52.198;5.004;2022-08-27T13:35:56;6.32;;;0.90;;
48667;SDS011;34453;52.198;5.004;2022-08-27T13:38:23;1.02;;;0.73;;
48667;SDS011;34453;52.198;5.004;2022-08-27T13:40:55;4.75;;;1.05;;
48667;SDS011;34453;52.198;5.004;2022-08-27T13:43:47;0.80;;;0.50;;
48667;SDS011;34453;52.198;5.004;2022-08-27T13:46:26;7.30;;;0.88;;
48667;SDS011;34453;52.198;5.004;2022-08-27T13:48:54;6.15;;;0.82;;
48667;SDS011;34453;52.198;5.004;2022-08-27T13:51:27;3.78;;;1.15;;
48667;SDS011;34453;52.198;5.004;2022-08-27T13:53:58;1.35;;;0.90;;
48667;SDS011;34453;52.198;5.004;2022-08-27T13:59:14;4.40;;;1.63;;
48667;SDS011;34453;52.198;5.004;2022-08-27T14:01:42;3.03;;;1.00;;
48667;SDS011;34453;52.198;5.004;2022-08-27T14:07:33;3.50;;;1.08;;
48667;SDS011;34453;52.198;5.004;2022-08-27T14:10:03;3.25;;;1.38;;
48667;SDS011;34453;52.198;5.004;2022-08-27T14:12:38;1.85;;;0.80;;
48667;SDS011;34453;52.198;5.004;2022-08-27T14:15:17;1.98;;;0.80;;
48667;SDS011;34453;52.198;5.004;2022-08-27T14:17:47;2.42;;;0.98;;
48667;SDS011;34453;52.198;5.004;2022-08-27T14:20:14;7.95;;;1.35;;
48667;SDS011;34453;52.198;5.004;2022-08-27T14:22:41;1.55;;;0.63;;
48667;SDS011;34453;52.198;5.004;2022-08-27T14:25:09;3.38;;;0.77;;
48667;SDS011;34453;52.198;5.004;2022-08-27T14:27:37;5.82;;;1.73;;
48667;SDS011;34453;52.198;5.004;2022-08-27T14:30:05;6.40;;;1.08;;
48667;SDS011;34453;52.198;5.004;2022-08-27T14:32:32;3.78;;;1.13;;
48667;SDS011;34453;52.198;5.004;2022-08-27T14:34:58;2.83;;;1.02;;
48667;SDS011;34453;52.198;5.004;2022-08-27T14:37:24;10.15;;;1.17;;
48667;SDS011;34453;52.198;5.004;2022-08-27T14:39:50;5.35;;;0.75;;
48667;SDS011;34453;52.198;5.004;2022-08-27T14:42:16;5.38;;;0.95;;
48667;SDS011;34453;52.198;5.004;2022-08-27T14:44:42;5.55;;;0.90;;
48667;SDS011;34453;52.198;5.004;2022-08-27T14:47:09;5.70;;;1.33;;
48667;SDS011;34453;52.198;5.004;2022-08-27T14:49:36;3.85;;;1.00;;
48667;SDS011;34453;52.198;5.004;2022-08-27T14:52:05;3.38;;;1.23;;
48667;SDS011;34453;52.198;5.004;2022-08-27T14:54:32;6.40;;;1.05;;
48667;SDS011;34453;52.198;5.004;2022-08-27T14:57:02;5.95;;;1.05;;
48667;SDS011;34453;52.198;5.004;2022-08-27T14:59:29;5.65;;;0.85;;
48667;SDS011;34453;52.198;5.004;2022-08-27T15:01:58;4.68;;;0.93;;
48667;SDS011;34453;52.198;5.004;2022-08-27T15:04:25;3.45;;;0.63;;
48667;SDS011;34453;52.198;5.004;2022-08-27T15:06:52;3.80;;;0.80;;
48667;SDS011;34453;52.198;5.004;2022-08-27T15:09:21;3.38;;;1.00;;
48667;SDS011;34453;52.198;5.004;2022-08-27T15:11:50;2.97;;;0.93;;
48667;SDS011;34453;52.198;5.004;2022-08-27T15:14:29;3.92;;;1.05;;
48667;SDS011;34453;52.198;5.004;2022-08-27T15:17:00;3.05;;;1.65;;
48667;SDS011;34453;52.198;5.004;2022-08-27T15:19:28;4.05;;;0.90;;
48667;SDS011;34453;52.198;5.004;2022-08-27T15:22:03;6.90;;;1.40;;
48667;SDS011;34453;52.198;5.004;2022-08-27T15:24:47;5.90;;;1.55;;
48667;SDS011;34453;52.198;5.004;2022-08-27T15:27:16;8.30;;;2.20;;
48667;SDS011;34453;52.198;5.004;2022-08-27T15:29:43;1.52;;;1.05;;
48667;SDS011;34453;52.198;5.004;2022-08-27T15:32:09;10.60;;;2.83;;
48667;SDS011;34453;52.198;5.004;2022-08-27T15:35:01;1.67;;;0.60;;
48667;SDS011;34453;52.198;5.004;2022-08-27T15:37:38;6.43;;;1.85;;
48667;SDS011;34453;52.198;5.004;2022-08-27T15:40:05;3.08;;;1.10;;
48667;SDS011;34453;52.198;5.004;2022-08-27T15:42:31;6.38;;;1.42;;
48667;SDS011;34453;52.198;5.004;2022-08-27T15:44:58;10.07;;;2.33;;
48667;SDS011;34453;52.198;5.004;2022-08-27T15:47:24;3.25;;;1.20;;
48667;SDS011;34453;52.198;5.004;2022-08-27T15:49:50;5.18;;;1.38;;
48667;SDS011;34453;52.198;5.004;2022-08-27T15:52:17;7.57;;;2.03;;
48667;SDS011;34453;52.198;5.004;2022-08-27T15:54:45;5.95;;;1.45;;
48667;SDS011;34453;52.198;5.004;2022-08-27T15:57:13;3.20;;;1.75;;
48667;SDS011;34453;52.198;5.004;2022-08-27T15:59:38;3.67;;;1.10;;
48667;SDS011;34453;52.198;5.004;2022-08-27T16:02:05;1.77;;;1.00;;
48667;SDS011;34453;52.198;5.004;2022-08-27T16:04:35;6.60;;;1.77;;
48667;SDS011;34453;52.198;5.004;2022-08-27T16:07:01;7.72;;;1.30;;
48667;SDS011;34453;52.198;5.004;2022-08-27T16:09:26;4.50;;;1.80;;
48667;SDS011;34453;52.198;5.004;2022-08-27T16:11:52;2.22;;;1.02;;
48667;SDS011;34453;52.198;5.004;2022-08-27T16:14:18;2.70;;;1.48;;
48667;SDS011;34453;52.198;5.004;2022-08-27T16:16:44;1.88;;;0.80;;
48667;SDS011;34453;52.198;5.004;2022-08-27T16:19:11;6.97;;;1.48;;
48667;SDS011;34453;52.198;5.004;2022-08-27T16:21:38;3.20;;;1.20;;
48667;SDS011;34453;52.198;5.004;2022-08-27T16:24:05;3.97;;;1.60;;
48667;SDS011;34453;52.198;5.004;2022-08-27T16:26:33;3.45;;;1.40;;
48667;SDS011;34453;52.198;5.004;2022-08-27T16:28:59;8.18;;;1.90;;